Terminal Aerodrome Forecast
Issued by NWS

Home | Current Version | Previous Version | Text Only | Print | Product List | Glossary On
Versions: 1 2 3 4 5 6 7 8 9 10 11 12 13 14 15 16 17 18 19
970
FTUS45 KABQ 301740
TAFTCC
TAF
KTCC 301740Z 3018/0118 06009KT P6SM BKN025
     FM010000 07015G25KT P6SM OVC040
     FM010400 05025G35KT P6SM VCSH OVC020
     FM011200 03015G25KT 4SM -RA BR OVC015=

USA.gov is the U.S. government's official web portal to all federal, state and local government web resources and services.